createdAt,value
2018-04-07T00:00:39.699Z,3.50
2018-04-07T00:05:30.597Z,3.50
2018-04-07T00:10:22.241Z,3.50
2018-04-07T00:15:13.961Z,3.60
2018-04-07T00:20:04.864Z,3.50
2018-04-07T00:24:55.778Z,3.50
2018-04-07T00:29:54.401Z,3.50
2018-04-07T00:34:46.045Z,3.50
2018-04-07T00:39:36.936Z,3.50
2018-04-07T00:44:27.828Z,3.50
2018-04-07T00:49:18.729Z,3.50
2018-04-07T00:54:09.629Z,3.50
2018-04-07T00:59:00.525Z,3.50
2018-04-07T01:03:52.905Z,3.60
2018-04-07T01:08:43.801Z,3.50
2018-04-07T01:13:34.697Z,3.60
2018-04-07T01:18:25.625Z,3.60
2018-04-07T01:23:16.533Z,3.60
2018-04-07T01:28:07.434Z,3.70
2018-04-07T01:32:58.334Z,3.70
2018-04-07T01:37:50.725Z,3.70
2018-04-07T01:42:42.374Z,3.70
2018-04-07T01:47:34.026Z,3.70
2018-04-07T01:52:25.672Z,3.70
2018-04-07T01:57:16.573Z,3.60
2018-04-07T02:02:07.498Z,3.60
2018-04-07T02:06:58.397Z,3.60
2018-04-07T02:11:49.309Z,3.60
2018-04-07T02:16:40.949Z,3.60
2018-04-07T02:21:31.845Z,3.50
2018-04-07T02:26:22.777Z,3.60
2018-04-07T02:31:13.686Z,3.50
2018-04-07T02:36:04.602Z,3.50
2018-04-07T02:40:55.507Z,3.50
2018-04-07T02:45:46.410Z,3.50
2018-04-07T02:50:37.318Z,3.50
2018-04-07T02:55:28.969Z,3.50
2018-04-07T03:00:19.867Z,3.40
2018-04-07T03:05:10.770Z,3.50
2018-04-07T03:10:01.661Z,3.40
2018-04-07T03:14:52.562Z,3.40
2018-04-07T03:19:43.461Z,3.40
2018-04-07T03:24:34.352Z,3.40
2018-04-07T03:29:25.265Z,3.40
2018-04-07T03:34:16.901Z,3.50
2018-04-07T03:39:07.814Z,3.40
2018-04-07T03:43:58.757Z,3.50
2018-04-07T03:48:49.649Z,3.50
2018-04-07T03:53:40.565Z,3.50
2018-04-07T03:58:32.205Z,3.40
2018-04-07T04:03:23.857Z,3.50
2018-04-07T04:08:15.484Z,3.50
2018-04-07T04:13:06.386Z,3.40
2018-04-07T04:17:57.285Z,3.50
2018-04-07T04:22:48.921Z,3.50
2018-04-07T04:27:40.561Z,3.50
2018-04-07T04:32:31.458Z,3.50
2018-04-07T04:37:22.358Z,3.50
2018-04-07T04:42:13.256Z,3.50
2018-04-07T04:47:04.162Z,3.50
2018-04-07T04:51:55.076Z,3.60
2018-04-07T04:56:45.977Z,3.60
2018-04-07T05:01:37.638Z,3.60
2018-04-07T05:06:29.278Z,3.60
2018-04-07T05:11:20.913Z,3.70
2018-04-07T05:16:11.822Z,3.60
2018-04-07T05:21:02.722Z,3.70
2018-04-07T05:25:53.617Z,3.80
2018-04-07T05:30:44.514Z,3.90
2018-04-07T05:35:35.405Z,4.00
2018-04-07T05:40:26.509Z,4.10
2018-04-07T05:45:17.405Z,4.20
2018-04-07T05:50:09.045Z,4.40
2018-04-07T05:55:00.689Z,4.60
2018-04-07T05:59:51.584Z,4.50
2018-04-07T06:04:42.644Z,4.60
2018-04-07T06:09:33.637Z,4.80
2018-04-07T06:14:24.566Z,4.90
2018-04-07T06:19:15.461Z,5.10
2018-04-07T06:24:07.103Z,5.40
2018-04-07T06:28:58.072Z,5.40
2018-04-07T06:33:48.973Z,5.50
2018-04-07T06:38:39.877Z,5.70
2018-04-07T06:43:30.773Z,5.80
2018-04-07T06:48:22.409Z,6.20
2018-04-07T06:53:13.345Z,6.10
2018-04-07T06:58:04.237Z,6.40
2018-04-07T07:02:55.137Z,6.60
2018-04-07T07:07:46.053Z,6.90
2018-04-07T07:12:36.945Z,7.10
2018-04-07T07:17:27.844Z,7.40
2018-04-07T07:22:18.746Z,7.60
2018-04-07T07:27:09.650Z,7.90
2018-04-07T07:32:01.291Z,8.40
2018-04-07T07:36:52.946Z,8.60
2018-04-07T07:41:44.593Z,8.80
2018-04-07T07:46:35.490Z,8.70
2018-04-07T07:51:26.388Z,8.90
2018-04-07T07:56:17.317Z,9.00
2018-04-07T08:01:08.221Z,9.10
2018-04-07T08:05:59.872Z,9.30
2018-04-07T08:10:50.785Z,9.30
2018-04-07T08:15:41.690Z,9.40
2018-04-07T08:20:32.590Z,9.50
2018-04-07T08:25:23.488Z,9.70
2018-04-07T08:30:14.376Z,9.80
2018-04-07T08:35:05.318Z,9.90
2018-04-07T08:39:56.209Z,10.10
2018-04-07T08:44:47.849Z,10.60
2018-04-07T08:54:57.288Z,10.90
2018-04-07T08:59:48.197Z,11.40
2018-04-07T09:04:39.855Z,12.10
2018-04-07T09:09:30.749Z,12.00
2018-04-07T09:14:22.385Z,12.60
2018-04-07T09:19:14.033Z,12.90
2018-04-07T09:24:05.893Z,13.10
2018-04-07T09:28:57.534Z,13.30
2018-04-07T09:33:49.241Z,13.40
2018-04-07T09:38:40.163Z,13.40
2018-04-07T09:43:31.077Z,13.60
2018-04-07T09:48:22.018Z,13.70
2018-04-07T09:53:12.921Z,13.80
2018-04-07T09:58:03.849Z,13.90
2018-04-07T10:03:00.868Z,14.00
2018-04-07T10:07:52.521Z,14.30
2018-04-07T10:12:44.293Z,14.60
2018-04-07T10:17:35.990Z,14.80
2018-04-07T10:22:26.925Z,14.80
2018-04-07T10:27:17.929Z,15.10
2018-04-07T10:32:08.863Z,15.30
2018-04-07T10:36:59.893Z,15.60
2018-04-07T10:41:50.909Z,15.90
2018-04-07T10:46:41.833Z,16.20
2018-04-07T10:51:32.812Z,16.50
2018-04-07T10:56:23.721Z,16.80
2018-04-07T11:01:15.440Z,17.60
2018-04-07T11:06:06.393Z,17.50
2018-04-07T11:10:57.265Z,18.00
2018-04-07T11:15:48.198Z,18.40
2018-04-07T11:20:39.106Z,18.70
2018-04-07T11:25:30.038Z,19.20
2018-04-07T11:30:20.970Z,19.60
2018-04-07T11:35:11.914Z,20.20
2018-04-07T11:40:02.833Z,20.70
2018-04-07T11:44:53.754Z,21.30
2018-04-07T11:49:44.678Z,21.90
2018-04-07T11:54:35.637Z,22.50
2018-04-07T11:59:26.541Z,23.00
2018-04-07T12:04:17.480Z,23.60
2018-04-07T12:09:08.381Z,24.10
2018-04-07T12:13:59.285Z,24.70
2018-04-07T12:18:50.218Z,25.20
2018-04-07T12:23:41.848Z,26.20
2018-04-07T12:28:32.754Z,26.10
2018-04-07T12:33:23.673Z,26.50
2018-04-07T12:38:15.310Z,27.00
2018-04-07T12:43:06.246Z,27.00
2018-04-07T12:47:57.897Z,27.10
2018-04-07T12:52:49.541Z,27.10
2018-04-07T12:57:41.193Z,27.00
2018-04-07T13:02:32.858Z,26.80
2018-04-07T13:07:23.769Z,26.80
2018-04-07T13:12:15.442Z,26.40
2018-04-07T13:17:06.374Z,26.30
2018-04-07T13:21:57.269Z,26.10
2018-04-07T13:26:48.178Z,25.90
2018-04-07T13:31:39.096Z,25.60
2018-04-07T13:36:30.028Z,25.30
2018-04-07T13:41:20.929Z,25.10
2018-04-07T13:46:12.180Z,24.80
2018-04-07T13:51:03.093Z,24.60
2018-04-07T13:55:53.997Z,24.50
2018-04-07T14:00:44.929Z,24.50
2018-04-07T14:05:35.834Z,24.60
2018-04-07T14:10:26.733Z,24.70
2018-04-07T14:15:18.382Z,24.90
2018-04-07T14:20:10.026Z,24.80
2018-04-07T14:25:01.669Z,24.70
2018-04-07T14:29:53.305Z,24.50
2018-04-07T14:34:44.201Z,24.50
2018-04-07T14:39:35.097Z,24.40
2018-04-07T14:44:26.066Z,24.30
2018-04-07T14:49:16.965Z,24.20
2018-04-07T14:54:07.870Z,24.10
2018-04-07T14:58:59.512Z,24.20
2018-04-07T15:03:51.200Z,24.30
2018-04-07T15:08:42.097Z,24.30
2018-04-07T15:13:33.037Z,24.40
2018-04-07T15:18:23.918Z,24.60
2018-04-07T15:23:15.648Z,24.40
2018-04-07T15:28:06.548Z,24.40
2018-04-07T15:32:57.462Z,24.20
2018-04-07T15:37:48.357Z,24.00
2018-04-07T15:42:40.009Z,23.40
2018-04-07T15:47:31.645Z,23.20
2018-04-07T15:52:23.294Z,22.90
2018-04-07T15:57:14.987Z,22.60
2018-04-07T16:02:05.930Z,22.50
2018-04-07T16:06:56.853Z,22.20
2018-04-07T16:11:47.761Z,22.00
2018-04-07T16:16:38.788Z,21.60
2018-04-07T16:21:29.728Z,21.40
2018-04-07T16:26:20.654Z,21.10
2018-04-07T16:31:11.557Z,20.90
2018-04-07T16:36:02.474Z,20.60
2018-04-07T16:40:53.381Z,20.40
2018-04-07T16:45:45.029Z,20.00
2018-04-07T16:50:36.795Z,19.80
2018-04-07T16:55:28.441Z,19.60
2018-04-07T17:00:19.340Z,19.60
2018-04-07T17:05:10.240Z,19.40
2018-04-07T17:10:01.153Z,19.20
2018-04-07T17:14:52.172Z,19.00
2018-04-07T17:19:43.065Z,18.80
2018-04-07T17:24:33.977Z,18.70
2018-04-07T17:29:24.885Z,18.50
2018-04-07T17:34:15.801Z,18.30
2018-04-07T17:39:07.010Z,18.10
2018-04-07T17:43:58.657Z,17.80
2018-04-07T17:48:50.337Z,17.60
2018-04-07T17:53:41.253Z,17.60
2018-04-07T17:58:32.165Z,17.40
2018-04-07T18:03:23.072Z,17.20
2018-04-07T18:08:13.977Z,17.10
2018-04-07T18:13:04.889Z,16.90
2018-04-07T18:17:55.792Z,16.80
2018-04-07T18:22:46.721Z,16.60
2018-04-07T18:27:37.625Z,16.50
2018-04-07T18:32:29.273Z,16.20
2018-04-07T18:37:20.960Z,16.00
2018-04-07T18:42:11.885Z,16.00
2018-04-07T18:47:02.797Z,15.90
2018-04-07T18:51:54.454Z,15.60
2018-04-07T18:56:45.479Z,15.60
2018-04-07T19:01:36.397Z,15.50
2018-04-07T19:06:27.309Z,15.40
2018-04-07T19:11:18.961Z,15.10
2018-04-07T19:16:09.869Z,15.10
2018-04-07T19:21:01.520Z,14.80
2018-04-07T19:25:53.181Z,14.60
2018-04-07T19:30:44.840Z,14.50
2018-04-07T19:35:35.760Z,14.50
2018-04-07T19:40:26.665Z,14.30
2018-04-07T19:45:18.309Z,14.10
2018-04-07T19:50:09.223Z,14.00
2018-04-07T19:55:00.130Z,13.90
2018-04-07T19:59:51.054Z,13.80
2018-04-07T20:04:41.950Z,13.60
2018-04-07T20:09:32.853Z,13.50
2018-04-07T20:14:23.749Z,13.40
2018-04-07T20:19:14.649Z,13.20
2018-04-07T20:24:06.360Z,13.00
2018-04-07T20:28:57.260Z,12.90
2018-04-07T20:33:48.174Z,12.90
2018-04-07T20:38:39.085Z,12.80
2018-04-07T20:43:30.001Z,12.70
2018-04-07T20:48:20.928Z,12.60
2018-04-07T20:53:11.830Z,12.50
2018-04-07T20:58:02.736Z,12.50
2018-04-07T21:02:53.641Z,12.40
2018-04-07T21:07:44.553Z,12.40
2018-04-07T21:12:36.204Z,12.20
2018-04-07T21:17:27.109Z,12.20
2018-04-07T21:22:18.750Z,12.10
2018-04-07T21:27:10.389Z,12.00
2018-04-07T21:32:02.039Z,12.00
2018-04-07T21:36:53.683Z,11.90
2018-04-07T21:41:44.581Z,11.80
2018-04-07T21:46:35.501Z,11.80
2018-04-07T21:51:26.413Z,11.70
2018-04-07T21:56:17.313Z,11.70
2018-04-07T22:01:08.226Z,11.60
2018-04-07T22:05:59.125Z,11.50
2018-04-07T22:10:50.038Z,11.50
2018-04-07T22:15:40.965Z,11.40
2018-04-07T22:20:31.868Z,11.40
2018-04-07T22:25:22.778Z,11.30
2018-04-07T22:30:13.731Z,11.30
2018-04-07T22:35:04.601Z,11.20
2018-04-07T22:39:55.500Z,11.10
2018-04-07T22:44:47.166Z,11.10
2018-04-07T22:49:38.073Z,11.00
2018-04-07T22:54:29.721Z,11.00
2018-04-07T22:59:21.365Z,11.00
2018-04-07T23:04:13.021Z,11.00
2018-04-07T23:09:04.656Z,11.00
2018-04-07T23:13:56.293Z,10.90
2018-04-07T23:18:47.945Z,10.90
2018-04-07T23:23:39.595Z,10.90
2018-04-07T23:28:30.501Z,10.90
2018-04-07T23:33:22.157Z,10.80
2018-04-07T23:38:13.806Z,10.80
2018-04-07T23:43:04.717Z,10.80
2018-04-07T23:47:56.357Z,10.80
2018-04-07T23:52:47.993Z,10.80
2018-04-07T23:57:38.891Z,10.70
